메인 페이지
METAR-TAF:

METAR-TAF

공항 :

잭슨, 미시시피, 미국

위도: 32-19-11N, 경도: 090-04-39W, 고도: 105m

현재 날씨관측

예보는 2 시간 47분 전, 09:54시(UTC)에 발표되었습니다.
무풍
온도 17°C
습도 77%
기압 1017 hPa
시정: 16.1km
맑음

METAR: KJAN 060954Z AUTO 00000KT 10SM CLR 17/13 A3004 RMK AO2 SLP169 T01670133

시각: 07:41 (12:41 UTC)

예보

예보는 1 시간 21분 전, 11:20시(UTC)에 발표되었습니다.
예보 대상 시간: 06일 12시부터 07일 12시까지 (UTC)
남동3kt
시정: 10km
고도 20000ft 상공 흐림
06일 1700시부터 (UTC)
8kt
시정: 10km
고도 10000ft 상공 구름 보통
고도 20000ft 상공 구름 많음
07일 1100시부터 (UTC)
남남동5kt
시정: 10km
고도 4000ft 상공 구름 많음
고도 10000ft 상공 흐림
시계 내 소나기

TAF: KJAN 061120Z 0612/0712 14003KT P6SM OVC200 FM061700 18008KT P6SM SCT100 BKN200 FM071100 16005KT P6SM VCSH BKN040 OVC100

4,000개 이상의 공항 관측 자료 및 예보 (METAR 및 TAF 보고).

지도상에서 검색 가능한 기상관측소가 노란 점과 빨간 점으로 표시되어 있습니다.

기상관측소 명을 보려면 표시 위로 마우스를 이동하세요.

날씨 관측과 예보를 보려면 클릭하세요.

지도 변경 : 확대하려면 엑스 표시가 있는 녹색 버튼, 축소하려면 빼기 표시가 있는 녹색 버튼, 다음 페이지의 지도를 보려면 녹색 화살표를 클릭하세요.


METAR-TAF: